Time;durP1;ratioP1;P1;durP2;ratioP2;P2;SDS_P1;SDS_P2;PMS_P1;PMS_P2;Temp;Humidity;BMP_temperature;BMP_pressure;BME280_temperature;BME280_humidity;BME280_pressure;Samples;Min_cycle;Max_cycle;Signal;HPM_P1;HPM_P2
2022/02/18 00:02:06;;;;;;;6.90;1.00;;;6.10;99.90;;;;;;2603487;54;20301;31
2022/02/18 00:04:43;;;;;;;5.80;0.80;;;6.00;99.90;;;;;;2603600;54;20077;31
2022/02/18 00:07:17;;;;;;;4.55;1.00;;;6.10;99.90;;;;;;2622019;46;20882;31
2022/02/18 00:09:52;;;;;;;3.70;0.90;;;6.00;99.90;;;;;;2603681;54;20032;31
2022/02/18 00:12:26;;;;;;;7.72;1.70;;;6.00;99.90;;;;;;2622085;46;20962;31
2022/02/18 00:15:00;;;;;;;7.75;2.17;;;6.00;99.90;;;;;;2603356;54;20593;31
2022/02/18 00:17:38;;;;;;;6.65;1.33;;;6.00;99.90;;;;;;2603434;54;20976;31
2022/02/18 00:20:12;;;;;;;7.55;1.35;;;6.00;99.90;;;;;;2603500;54;20056;31
2022/02/18 00:22:47;;;;;;;5.97;0.98;;;6.00;99.90;;;;;;2603606;54;20863;31
2022/02/18 00:25:23;;;;;;;5.57;1.35;;;6.00;99.90;;;;;;2603484;54;20871;31
2022/02/18 00:27:57;;;;;;;7.60;1.13;;;6.00;99.90;;;;;;2603634;54;20052;31
2022/02/18 00:30:32;;;;;;;4.75;0.70;;;6.00;99.90;;;;;;2603654;54;20292;31
2022/02/18 00:33:10;;;;;;;9.80;1.02;;;6.00;99.90;;;;;;2603698;54;20046;31
2022/02/18 00:35:45;;;;;;;3.45;1.45;;;6.00;99.90;;;;;;2603407;54;20061;31
2022/02/18 00:38:19;;;;;;;6.63;0.90;;;6.00;99.90;;;;;;2603662;54;20075;31
2022/02/18 00:40:53;;;;;;;7.57;0.95;;;5.90;99.90;;;;;;2603189;54;20320;31
2022/02/18 00:43:27;;;;;;;5.73;1.00;;;5.90;99.90;;;;;;2603469;54;20840;31
2022/02/18 00:46:01;;;;;;;5.70;1.20;;;6.00;99.90;;;;;;2603402;54;20032;31
2022/02/18 00:48:39;;;;;;;7.40;1.40;;;5.90;99.90;;;;;;2603671;54;20920;31
2022/02/18 00:51:17;;;;;;;6.93;1.63;;;5.90;99.90;;;;;;2603593;54;20033;31
2022/02/18 00:53:52;;;;;;;3.80;0.80;;;5.90;99.90;;;;;;2603583;54;20905;31
2022/02/18 00:56:26;;;;;;;2.78;1.30;;;5.90;99.90;;;;;;2603452;54;20030;31
2022/02/18 00:59:02;;;;;;;6.97;1.40;;;5.90;99.90;;;;;;2603474;54;20692;31
2022/02/18 01:01:37;;;;;;;5.28;1.08;;;5.90;99.90;;;;;;2621337;46;20026;31
2022/02/18 01:04:15;;;;;;;4.85;0.80;;;5.80;99.90;;;;;;2603434;54;20042;31
2022/02/18 01:06:49;;;;;;;3.72;0.60;;;5.90;99.90;;;;;;2603538;54;20030;31
2022/02/18 01:09:23;;;;;;;4.15;1.10;;;5.70;99.90;;;;;;2621758;46;21045;31
2022/02/18 01:11:58;;;;;;;6.03;1.38;;;5.70;99.90;;;;;;2603258;54;20180;31
2022/02/18 01:14:33;;;;;;;5.68;1.10;;;5.60;99.90;;;;;;2701931;39;20620;31
2022/02/18 01:17:08;;;;;;;9.63;3.13;;;5.60;99.90;;;;;;2603442;54;20080;31
2022/02/18 01:19:45;;;;;;;8.07;1.48;;;5.50;99.90;;;;;;2603386;54;20281;31
2022/02/18 01:22:20;;;;;;;8.68;1.15;;;5.50;99.90;;;;;;2603309;54;20097;31
2022/02/18 01:24:54;;;;;;;5.25;0.85;;;5.40;99.90;;;;;;2603190;54;20023;31
2022/02/18 01:27:28;;;;;;;11.77;1.92;;;5.40;99.90;;;;;;2621032;46;20027;31
2022/02/18 01:30:02;;;;;;;11.45;1.50;;;5.40;99.90;;;;;;2603330;54;19954;31
2022/02/18 01:32:38;;;;;;;3.65;0.90;;;5.40;99.90;;;;;;2603210;54;20782;31
2022/02/18 01:35:17;;;;;;;3.95;1.20;;;5.40;99.90;;;;;;2603118;54;20904;31
2022/02/18 01:37:53;;;;;;;6.10;0.93;;;5.30;99.90;;;;;;2603452;54;20042;31
2022/02/18 01:40:27;;;;;;;5.97;1.25;;;5.30;99.90;;;;;;2603207;54;20114;31
2022/02/18 01:43:00;;;;;;;9.15;0.95;;;5.20;99.90;;;;;;2701313;39;22295;31
2022/02/18 01:45:35;;;;;;;5.95;1.00;;;5.20;99.90;;;;;;2621782;46;20030;31
2022/02/18 01:48:11;;;;;;;2.35;0.80;;;5.20;99.90;;;;;;2603338;54;20093;31
2022/02/18 01:50:48;;;;;;;7.03;1.30;;;5.10;99.90;;;;;;2602532;54;20841;31
2022/02/18 01:53:24;;;;;;;4.57;1.00;;;5.10;99.90;;;;;;2621952;46;20172;31
2022/02/18 01:56:00;;;;;;;6.30;0.97;;;5.00;99.90;;;;;;2603237;54;20053;31
2022/02/18 01:58:34;;;;;;;7.20;1.15;;;5.10;99.90;;;;;;2603126;54;20093;31
2022/02/18 02:01:09;;;;;;;5.78;1.17;;;5.00;99.90;;;;;;2602788;54;20902;31
2022/02/18 02:03:44;;;;;;;4.03;0.75;;;5.00;99.90;;;;;;2603136;54;20033;31
2022/02/18 02:06:21;;;;;;;5.13;0.95;;;4.90;99.90;;;;;;2603062;54;20081;31
2022/02/18 02:08:56;;;;;;;7.93;1.00;;;5.00;99.90;;;;;;2603303;54;20181;31
2022/02/18 02:11:35;;;;;;;6.90;1.20;;;4.90;99.90;;;;;;2603021;54;20062;31
2022/02/18 02:14:10;;;;;;;4.63;0.85;;;4.90;99.90;;;;;;2603257;54;20045;31
2022/02/18 02:16:49;;;;;;;4.75;0.98;;;4.90;99.90;;;;;;2603057;54;20857;31
2022/02/18 02:19:24;;;;;;;5.20;1.70;;;4.90;99.90;;;;;;2603281;54;20046;31
2022/02/18 02:22:02;;;;;;;5.57;0.80;;;4.90;99.90;;;;;;2602978;54;20171;31
2022/02/18 02:24:40;;;;;;;3.88;0.88;;;4.80;99.90;;;;;;2603088;54;20862;31
2022/02/18 02:27:12;;;;;;;10.70;1.50;;;4.80;99.90;;;;;;2701803;39;21046;31
2022/02/18 02:29:49;;;;;;;3.95;0.80;;;4.80;99.90;;;;;;2602958;54;20068;31
2022/02/18 02:32:25;;;;;;;7.72;1.15;;;4.80;99.90;;;;;;2700648;39;20577;31
2022/02/18 02:35:00;;;;;;;5.30;0.90;;;4.80;99.90;;;;;;2603124;54;20030;31
2022/02/18 02:37:35;;;;;;;5.75;1.05;;;4.80;99.90;;;;;;2603169;54;20033;31
2022/02/18 02:40:21;;;;;;;6.47;0.95;;;4.90;99.90;;;;;;2603198;54;20023;31
2022/02/18 02:42:56;;;;;;;7.55;1.05;;;4.80;99.90;;;;;;2603116;54;20044;31
2022/02/18 02:45:31;;;;;;;;;;;4.80;99.90;;;;;;2604030;54;20113;31
2022/02/18 02:48:07;;;;;;;4.95;0.85;;;4.80;99.90;;;;;;2603905;54;20848;31
2022/02/18 02:51:04;;;;;;;5.65;1.23;;;4.80;99.90;;;;;;2603595;54;20932;31
2022/02/18 02:53:42;;;;;;;9.57;1.52;;;4.70;99.90;;;;;;2622351;46;20023;31
2022/02/18 02:58:49;;;;;;;5.82;1.30;;;4.80;99.90;;;;;;2604121;54;20886;31
2022/02/18 03:01:33;;;;;;;7.63;1.23;;;4.70;99.90;;;;;;2603770;54;20141;31
2022/02/18 03:04:08;;;;;;;5.33;1.30;;;4.80;99.90;;;;;;2603953;54;20254;31
2022/02/18 03:06:44;;;;;;;6.55;2.00;;;4.70;99.90;;;;;;2603729;54;20893;31
2022/02/18 03:09:24;;;;;;;7.25;1.30;;;4.70;99.90;;;;;;2603777;54;20037;31
2022/02/18 03:12:20;;;;;;;7.55;1.63;;;4.70;99.90;;;;;;2603963;54;20643;31
2022/02/18 03:15:01;;;;;;;4.47;1.40;;;4.70;99.90;;;;;;2622485;46;20878;31
2022/02/18 03:17:39;;;;;;;6.35;1.15;;;4.70;99.90;;;;;;2603048;54;20030;31
2022/02/18 03:20:40;;;;;;;4.00;0.80;;;4.70;99.90;;;;;;2603730;54;20876;31
2022/02/18 03:23:16;;;;;;;3.80;1.00;;;4.60;99.90;;;;;;2603721;54;20964;31
2022/02/18 03:25:51;;;;;;;7.50;1.15;;;4.60;99.90;;;;;;2603934;54;20027;31
2022/02/18 03:28:31;;;;;;;4.75;1.10;;;4.60;99.90;;;;;;2622514;46;20948;31
2022/02/18 03:31:17;;;;;;;4.28;1.55;;;4.60;99.90;;;;;;2603876;54;20023;31
2022/02/18 03:33:51;;;;;;;5.38;1.20;;;4.60;99.90;;;;;;2603771;54;20030;31
2022/02/18 03:36:26;;;;;;;9.15;1.38;;;4.60;99.90;;;;;;2603777;54;20038;31
2022/02/18 03:39:01;;;;;;;8.13;1.20;;;4.60;99.90;;;;;;2603698;54;20026;31
2022/02/18 03:41:37;;;;;;;6.05;1.25;;;4.60;99.90;;;;;;2603911;54;20034;31
2022/02/18 03:44:12;;;;;;;5.18;1.38;;;4.60;99.90;;;;;;2603559;54;20105;31
2022/02/18 03:47:01;;;;;;;6.90;1.10;;;4.60;99.90;;;;;;2603595;54;20934;31
2022/02/18 03:49:35;;;;;;;6.23;1.53;;;4.60;99.90;;;;;;2612266;46;20106;31
2022/02/18 03:52:12;;;;;;;7.65;1.45;;;4.50;99.90;;;;;;2603492;54;20077;31
2022/02/18 03:54:46;;;;;;;5.75;1.35;;;4.60;99.90;;;;;;2603545;54;20058;31
2022/02/18 03:57:20;;;;;;;10.30;1.10;;;4.50;99.90;;;;;;2603772;54;20956;31
2022/02/18 03:59:55;;;;;;;7.25;1.25;;;4.50;99.90;;;;;;2603489;54;20794;31
2022/02/18 04:02:33;;;;;;;4.65;1.00;;;4.50;99.90;;;;;;2603449;54;20862;31
2022/02/18 04:05:12;;;;;;;7.10;1.60;;;4.50;99.90;;;;;;2603558;54;20905;31
2022/02/18 04:08:00;;;;;;;5.03;1.17;;;4.50;99.90;;;;;;2603627;54;20042;31
2022/02/18 04:10:34;;;;;;;8.93;1.70;;;4.50;99.90;;;;;;2603620;54;20926;31
2022/02/18 04:13:16;;;;;;;7.90;1.83;;;4.40;99.90;;;;;;2603732;54;20033;31
2022/02/18 04:15:51;;;;;;;8.40;2.05;;;4.50;99.90;;;;;;2603502;54;21426;31
2022/02/18 04:18:28;;;;;;;8.60;1.73;;;4.40;99.90;;;;;;2603507;54;20026;31
2022/02/18 04:21:07;;;;;;;3.95;1.02;;;4.40;99.90;;;;;;2603817;54;20033;31
2022/02/18 04:24:07;;;;;;;9.00;1.92;;;4.30;99.90;;;;;;2603565;54;20042;31
2022/02/18 04:26:42;;;;;;;5.95;1.20;;;4.40;99.90;;;;;;2622049;46;20027;31
2022/02/18 04:29:17;;;;;;;5.65;1.10;;;4.40;99.90;;;;;;2603658;54;20869;31
2022/02/18 04:31:51;;;;;;;5.30;0.85;;;4.40;99.90;;;;;;2603325;54;20739;31
2022/02/18 04:34:28;;;;;;;6.40;1.15;;;4.40;99.90;;;;;;2603603;54;20023;31
2022/02/18 04:37:02;;;;;;;7.78;1.20;;;4.40;99.90;;;;;;2602933;54;20834;31
2022/02/18 04:39:36;;;;;;;;;;;4.50;99.90;;;;;;2602941;54;20026;31
2022/02/18 04:42:12;;;;;;;5.00;0.70;;;4.40;99.90;;;;;;2603134;54;19976;31
2022/02/18 04:44:46;;;;;;;5.60;0.90;;;4.40;99.90;;;;;;2603696;54;20859;31
2022/02/18 04:47:21;;;;;;;12.48;1.30;;;4.50;99.90;;;;;;2603416;54;20910;31
2022/02/18 04:49:58;;;;;;;5.70;1.40;;;4.30;99.90;;;;;;2603486;54;20046;31
2022/02/18 04:52:33;;;;;;;9.10;1.13;;;4.40;99.90;;;;;;2603572;54;20888;31
2022/02/18 04:55:09;;;;;;;8.88;1.13;;;4.40;99.90;;;;;;2603557;54;20093;31
2022/02/18 04:57:47;;;;;;;4.13;1.00;;;4.30;99.90;;;;;;2716492;39;21019;31
2022/02/18 05:00:22;;;;;;;8.65;0.88;;;4.30;99.90;;;;;;2603453;54;20287;31
2022/02/18 05:02:56;;;;;;;9.70;1.47;;;4.30;99.90;;;;;;2603694;54;20061;31
2022/02/18 05:05:33;;;;;;;7.68;1.35;;;4.20;99.90;;;;;;2603573;54;20870;31
2022/02/18 05:08:08;;;;;;;9.95;1.25;;;4.20;99.90;;;;;;2603342;54;20034;31
2022/02/18 05:10:44;;;;;;;8.45;1.85;;;4.20;99.90;;;;;;2622148;46;20057;31
2022/02/18 05:13:18;;;;;;;11.48;1.35;;;4.20;99.90;;;;;;2603311;54;20145;31
2022/02/18 05:15:52;;;;;;;8.70;1.65;;;4.20;99.90;;;;;;2603751;54;20040;31
2022/02/18 05:18:28;;;;;;;4.63;0.95;;;4.10;99.90;;;;;;2603381;54;20053;31
2022/02/18 05:21:06;;;;;;;3.30;0.90;;;4.10;99.90;;;;;;2603631;54;21420;31
2022/02/18 05:23:44;;;;;;;8.13;1.30;;;4.10;99.90;;;;;;2621632;46;20922;31
2022/02/18 05:26:19;;;;;;;9.13;1.23;;;4.10;99.90;;;;;;2603391;54;20061;31
2022/02/18 05:28:53;;;;;;;6.15;1.00;;;4.00;99.90;;;;;;2603592;54;20044;31
2022/02/18 05:31:28;;;;;;;11.10;1.98;;;4.00;99.90;;;;;;2603428;54;20027;31
2022/02/18 05:34:03;;;;;;;7.35;1.20;;;4.10;99.90;;;;;;2603393;54;20050;31
2022/02/18 05:36:39;;;;;;;8.40;1.30;;;4.00;99.90;;;;;;2702322;39;22223;31
2022/02/18 05:39:17;;;;;;;9.27;1.15;;;4.00;99.90;;;;;;2603298;54;20124;31
2022/02/18 05:41:52;;;;;;;7.30;0.90;;;4.00;99.90;;;;;;2622048;46;20057;31
2022/02/18 05:44:31;;;;;;;7.05;1.50;;;3.90;99.90;;;;;;2602520;54;20030;31
2022/02/18 05:47:07;;;;;;;14.40;2.00;;;3.90;99.90;;;;;;2621455;46;20875;31
2022/02/18 05:49:42;;;;;;;8.75;1.90;;;3.90;99.90;;;;;;2621934;46;20889;31
2022/02/18 05:52:20;;;;;;;7.93;1.10;;;3.90;99.90;;;;;;2603235;54;20060;31
2022/02/18 05:54:55;;;;;;;7.50;1.30;;;3.80;99.90;;;;;;2603329;54;20089;31
2022/02/18 05:57:27;;;;;;;7.50;1.57;;;3.80;99.90;;;;;;2603473;54;21824;31
2022/02/18 06:00:03;;;;;;;7.35;1.20;;;3.90;99.90;;;;;;2602969;54;21059;31
2022/02/18 06:02:45;;;;;;;8.40;1.30;;;3.80;99.90;;;;;;2603372;54;20022;31
2022/02/18 06:05:21;;;;;;;9.38;1.02;;;3.90;99.90;;;;;;2603408;54;20038;31
2022/02/18 06:08:00;;;;;;;4.13;1.02;;;3.80;99.90;;;;;;2603351;54;20022;31
2022/02/18 06:10:39;;;;;;;12.80;1.67;;;3.80;99.90;;;;;;2603210;54;20027;31
2022/02/18 06:13:18;;;;;;;6.85;1.30;;;3.80;99.90;;;;;;2603226;54;20026;31
2022/02/18 06:15:55;;;;;;;7.25;1.60;;;3.80;99.90;;;;;;2603142;54;20049;31
2022/02/18 06:18:28;;;;;;;;;;;3.90;99.90;;;;;;2603647;54;20030;31
2022/02/18 06:21:03;;;;;;;7.10;2.35;;;3.90;99.90;;;;;;2604062;54;19935;31
2022/02/18 06:23:41;;;;;;;5.38;2.00;;;4.00;99.90;;;;;;2613482;46;19935;31
2022/02/18 06:26:22;;;;;;;6.97;2.50;;;4.00;99.90;;;;;;2720819;39;20505;31
2022/02/18 06:28:56;;;;;;;8.77;2.53;;;4.10;99.90;;;;;;2604150;54;20238;31
2022/02/18 06:31:31;;;;;;;10.23;2.15;;;4.20;99.90;;;;;;2603930;54;20023;31
2022/02/18 06:34:05;;;;;;;6.87;1.60;;;4.10;99.90;;;;;;2603837;54;20758;31
2022/02/18 06:36:40;;;;;;;8.20;1.30;;;4.10;99.90;;;;;;2603841;54;20046;31
2022/02/18 06:39:16;;;;;;;5.55;1.42;;;4.20;99.90;;;;;;2603905;54;20046;31
2022/02/18 06:41:53;;;;;;;8.63;1.55;;;4.20;99.90;;;;;;2603803;54;20065;31
2022/02/18 06:44:27;;;;;;;7.33;1.60;;;4.20;99.90;;;;;;2604118;54;20117;31
2022/02/18 06:47:02;;;;;;;5.53;1.70;;;4.30;99.90;;;;;;2603924;54;20271;31
2022/02/18 06:49:37;;;;;;;5.18;1.70;;;4.40;99.90;;;;;;2604059;54;20898;31
2022/02/18 06:52:12;;;;;;;13.50;1.80;;;4.40;99.90;;;;;;2604070;54;20052;31
2022/02/18 06:54:50;;;;;;;11.32;2.72;;;4.50;99.90;;;;;;2603967;54;20027;31
2022/02/18 06:57:25;;;;;;;10.70;2.67;;;4.60;99.90;;;;;;2603756;54;20030;31
2022/02/18 07:00:01;;;;;;;10.40;3.42;;;4.60;99.90;;;;;;2603805;54;21160;31
2022/02/18 07:02:38;;;;;;;12.38;2.72;;;4.90;99.90;;;;;;2622148;46;20027;31
2022/02/18 07:05:13;;;;;;;10.50;2.43;;;5.40;99.90;;;;;;2622109;46;20116;31
2022/02/18 07:07:48;;;;;;;6.57;2.20;;;5.90;99.90;;;;;;2604017;54;20027;31
2022/02/18 07:10:26;;;;;;;8.48;3.00;;;6.40;99.90;;;;;;2603810;54;20030;31
2022/02/18 07:13:01;;;;;;;9.55;2.50;;;6.60;99.90;;;;;;2603938;54;20030;31
2022/02/18 07:15:36;;;;;;;8.40;2.13;;;6.80;99.90;;;;;;2622402;46;20026;31
2022/02/18 07:18:11;;;;;;;9.50;2.85;;;6.90;99.90;;;;;;2622319;46;20026;31
2022/02/18 07:20:46;;;;;;;12.43;2.60;;;7.40;99.90;;;;;;2603768;54;20030;31
2022/02/18 07:23:20;;;;;;;6.60;2.10;;;7.80;99.90;;;;;;2603742;54;20053;31
2022/02/18 07:25:58;;;;;;;8.85;2.50;;;8.20;99.90;;;;;;2603753;54;20046;31
2022/02/18 07:28:35;;;;;;;7.22;1.67;;;8.60;99.90;;;;;;2603733;54;20850;31
2022/02/18 07:31:09;;;;;;;6.95;2.22;;;8.50;99.90;;;;;;2603586;54;20827;31
2022/02/18 07:33:42;;;;;;;6.80;1.60;;;8.50;99.90;;;;;;2720631;39;22186;31
2022/02/18 07:36:17;;;;;;;6.35;1.35;;;8.70;99.90;;;;;;2603717;54;20317;31
2022/02/18 07:38:52;;;;;;;9.50;2.45;;;8.80;99.90;;;;;;2603897;54;20092;31
2022/02/18 07:41:30;;;;;;;9.35;2.30;;;8.90;99.90;;;;;;2603794;54;20061;31
2022/02/18 07:44:06;;;;;;;5.82;1.40;;;9.10;99.90;;;;;;2604020;54;20826;31
2022/02/18 07:46:41;;;;;;;8.70;1.92;;;9.50;99.90;;;;;;2603074;54;20046;31
2022/02/18 07:49:16;;;;;;;11.18;2.17;;;9.80;99.90;;;;;;2621683;46;20121;31
2022/02/18 07:51:51;;;;;;;9.50;3.15;;;10.30;99.90;;;;;;2622151;46;20903;31
2022/02/18 07:54:27;;;;;;;12.18;3.83;;;10.80;99.90;;;;;;2603551;54;20854;31
2022/02/18 07:57:04;;;;;;;7.20;3.33;;;11.10;99.90;;;;;;2603816;54;20867;31
2022/02/18 07:59:39;;;;;;;10.68;2.90;;;11.50;99.90;;;;;;2622345;46;20165;31
2022/02/18 08:02:14;;;;;;;10.30;2.60;;;11.60;99.90;;;;;;2603742;54;20137;31
2022/02/18 08:04:49;;;;;;;10.80;3.10;;;11.90;99.90;;;;;;2603565;54;20923;31
2022/02/18 08:07:24;;;;;;;9.13;2.43;;;12.10;99.90;;;;;;2603567;54;20133;31
2022/02/18 08:09:59;;;;;;;6.50;1.75;;;12.40;99.90;;;;;;2603549;54;20019;31
2022/02/18 08:12:37;;;;;;;10.40;2.20;;;12.40;99.90;;;;;;2603583;54;20027;31
2022/02/18 08:15:12;;;;;;;8.80;1.95;;;12.50;99.90;;;;;;2621990;46;20648;31
2022/02/18 08:17:47;;;;;;;7.57;2.03;;;12.60;99.90;;;;;;2603674;54;20057;31
2022/02/18 08:20:22;;;;;;;7.47;2.25;;;12.50;99.90;;;;;;2603335;54;20264;31
2022/02/18 08:22:58;;;;;;;4.57;1.50;;;12.60;99.90;;;;;;2603520;54;20031;31
2022/02/18 08:25:33;;;;;;;5.90;1.70;;;12.80;99.90;;;;;;2603589;54;20762;31
2022/02/18 08:28:11;;;;;;;8.38;2.13;;;12.90;99.90;;;;;;2603380;54;20022;31
2022/02/18 08:30:48;;;;;;;6.00;1.40;;;13.10;99.90;;;;;;2603770;54;20949;31
2022/02/18 08:33:23;;;;;;;6.25;1.80;;;13.30;99.90;;;;;;2603880;54;20033;31
2022/02/18 08:38:29;;;;;;;9.57;1.95;;;13.60;99.90;;;;;;2603565;54;20549;31
2022/02/18 08:41:04;;;;;;;7.73;1.80;;;13.50;99.90;;;;;;2603125;54;20026;31
2022/02/18 08:43:43;;;;;;;8.57;1.92;;;13.40;99.90;;;;;;2603530;54;20120;31
2022/02/18 08:46:18;;;;;;;10.30;2.25;;;13.40;99.90;;;;;;2603382;54;20052;31
2022/02/18 08:48:52;;;;;;;11.75;1.90;;;13.60;99.90;;;;;;2603590;54;20026;31
2022/02/18 08:51:27;;;;;;;6.07;1.77;;;13.70;99.90;;;;;;2603434;54;20026;31
2022/02/18 08:54:04;;;;;;;6.80;1.65;;;13.70;99.90;;;;;;2603851;54;20871;31
2022/02/18 08:56:40;;;;;;;10.90;2.47;;;13.60;99.90;;;;;;2602892;54;20844;31
2022/02/18 08:59:19;;;;;;;10.32;2.50;;;13.60;99.90;;;;;;2603553;54;20908;31
2022/02/18 09:01:54;;;;;;;8.15;1.95;;;13.60;99.90;;;;;;2603197;54;20912;31
2022/02/18 09:04:30;;;;;;;11.27;2.85;;;13.80;99.90;;;;;;2613126;46;20033;31
2022/02/18 09:07:06;;;;;;;8.52;1.70;;;14.00;99.90;;;;;;2603415;54;20042;31
2022/02/18 09:09:42;;;;;;;6.93;1.87;;;14.10;99.90;;;;;;2603743;54;20023;31
2022/02/18 09:12:19;;;;;;;8.25;2.60;;;14.30;99.90;;;;;;2603340;54;20970;31
2022/02/18 09:14:58;;;;;;;8.48;1.90;;;14.50;99.90;;;;;;2603510;54;20847;31
2022/02/18 09:17:38;;;;;;;5.85;1.73;;;14.20;99.90;;;;;;2621861;46;20026;31
2022/02/18 09:20:12;;;;;;;6.70;1.70;;;14.20;99.90;;;;;;2702104;39;20999;31
2022/02/18 09:22:47;;;;;;;10.55;2.55;;;14.20;99.90;;;;;;2603402;54;20065;31
2022/02/18 09:25:23;;;;;;;10.93;2.17;;;14.20;99.90;;;;;;2621742;46;20568;31
2022/02/18 09:27:59;;;;;;;6.45;1.85;;;14.30;99.90;;;;;;2603152;54;20057;31
2022/02/18 09:30:37;;;;;;;6.07;2.03;;;14.50;99.90;;;;;;2603164;54;20085;31
2022/02/18 09:33:22;;;;;;;9.35;1.63;;;14.60;99.90;;;;;;2773174;31;20512;31
2022/02/18 09:35:57;;;;;;;8.52;1.92;;;14.60;99.50;;;;;;2621811;46;20057;31
2022/02/18 09:38:31;;;;;;;9.15;1.90;;;14.60;99.50;;;;;;2603528;54;20022;31
2022/02/18 09:41:07;;;;;;;5.15;2.40;;;14.40;99.40;;;;;;2603171;54;20034;31
2022/02/18 09:43:42;;;;;;;8.20;1.90;;;14.30;99.80;;;;;;2603458;54;20949;31
2022/02/18 09:46:25;;;;;;;9.95;2.60;;;14.40;99.90;;;;;;2603552;54;20139;31
2022/02/18 09:49:00;;;;;;;7.15;1.98;;;14.30;99.50;;;;;;2701697;39;20514;31
2022/02/18 09:51:35;;;;;;;9.02;1.73;;;14.40;98.80;;;;;;2603459;54;20050;31
2022/02/18 09:54:12;;;;;;;8.70;2.20;;;14.50;99.90;;;;;;2603261;54;20562;31
2022/02/18 09:56:47;;;;;;;8.02;2.00;;;14.50;99.10;;;;;;2603345;54;20038;31
2022/02/18 09:59:22;;;;;;;8.20;1.85;;;14.50;99.20;;;;;;2603252;54;20113;31
2022/02/18 10:02:00;;;;;;;5.85;1.60;;;14.50;99.40;;;;;;2603373;54;20046;31
2022/02/18 10:04:36;;;;;;;8.20;1.83;;;14.60;99.90;;;;;;2603467;54;20770;31
2022/02/18 10:07:10;;;;;;;7.75;1.98;;;14.60;99.20;;;;;;2603337;54;20075;31
2022/02/18 10:09:48;;;;;;;10.53;2.07;;;14.60;99.90;;;;;;2603192;54;20973;31
2022/02/18 10:12:27;;;;;;;8.93;2.25;;;14.30;99.40;;;;;;2603300;54;20297;31
2022/02/18 10:15:07;;;;;;;8.18;2.35;;;14.10;99.80;;;;;;2603281;54;20046;31
2022/02/18 10:17:45;;;;;;;9.55;2.35;;;14.00;99.90;;;;;;2603186;54;20875;31
2022/02/18 10:20:28;;;;;;;7.40;1.85;;;13.80;99.90;;;;;;2622005;47;20046;31
2022/02/18 10:23:02;;;;;;;8.75;2.10;;;13.70;99.90;;;;;;2603144;54;20805;31
2022/02/18 10:25:41;;;;;;;12.18;1.88;;;13.40;99.90;;;;;;2603103;54;20050;31
2022/02/18 10:28:21;;;;;;;8.82;2.00;;;13.30;99.90;;;;;;2603134;54;20874;31
2022/02/18 10:31:04;;;;;;;8.20;2.05;;;13.40;99.90;;;;;;2603353;54;20553;31
2022/02/18 10:33:41;;;;;;;10.25;2.28;;;13.30;99.90;;;;;;2621752;47;20924;31
2022/02/18 10:36:16;;;;;;;10.07;2.47;;;13.20;99.90;;;;;;2603245;54;20082;31
2022/02/18 10:39:27;;;;;;;10.00;2.40;;;13.20;99.90;;;;;;2603132;54;20097;31
2022/02/18 10:42:02;;;;;;;9.73;1.83;;;13.20;99.90;;;;;;2603066;54;20053;31
2022/02/18 10:44:38;;;;;;;6.70;2.77;;;13.20;99.90;;;;;;2603331;54;20925;31
2022/02/18 10:47:13;;;;;;;;;;;13.40;99.90;;;;;;2603192;54;20259;31
2022/02/18 10:49:54;;;;;;;8.05;2.20;;;13.50;99.90;;;;;;2603246;54;19946;31
2022/02/18 10:52:28;;;;;;;8.38;2.28;;;13.50;99.90;;;;;;2603286;54;20937;31
2022/02/18 10:55:09;;;;;;;6.35;1.65;;;13.50;99.90;;;;;;2603083;54;20850;31
2022/02/18 10:57:44;;;;;;;6.90;1.85;;;13.50;99.90;;;;;;2602919;54;20034;31
2022/02/18 11:00:20;;;;;;;11.90;2.30;;;13.60;99.90;;;;;;2603118;54;20089;31
2022/02/18 11:02:55;;;;;;;6.95;1.70;;;13.70;99.90;;;;;;2603157;54;20093;31
2022/02/18 11:05:30;;;;;;;11.00;2.20;;;13.90;99.90;;;;;;2603387;54;20057;31
2022/02/18 11:08:07;;;;;;;7.47;2.20;;;13.90;99.90;;;;;;2621742;46;20851;31
2022/02/18 11:10:46;;;;;;;10.35;2.03;;;13.90;99.60;;;;;;2603991;54;20668;31
2022/02/18 11:13:20;;;;;;;8.25;1.50;;;13.90;99.90;;;;;;2773887;31;20521;31
2022/02/18 11:15:52;;;;;;;9.30;2.25;;;13.90;98.80;;;;;;2702640;39;21131;31
2022/02/18 11:18:28;;;;;;;8.83;2.87;;;13.90;99.60;;;;;;2603829;54;20880;31
2022/02/18 11:21:03;;;;;;;4.60;1.35;;;13.90;99.90;;;;;;2603955;54;20077;31
2022/02/18 11:23:43;;;;;;;6.55;1.45;;;13.70;98.60;;;;;;2603957;54;20077;31
2022/02/18 11:26:19;;;;;;;7.13;2.00;;;13.50;99.20;;;;;;2603780;54;20024;31
2022/02/18 11:28:54;;;;;;;7.90;2.05;;;13.30;99.40;;;;;;2622345;46;20778;31
2022/02/18 11:31:32;;;;;;;6.43;1.60;;;13.30;99.90;;;;;;2603718;54;20855;31
2022/02/18 11:34:32;;;;;;;;;;;13.30;99.90;;;;;;2603974;54;20022;31
2022/02/18 11:37:38;;;;;;;7.32;1.65;;;13.30;99.20;;;;;;2702235;39;20450;31
2022/02/18 11:40:30;;;;;;;6.30;1.50;;;13.40;98.50;;;;;;2604025;54;20829;31
2022/02/18 11:43:23;;;;;;;5.70;1.90;;;13.20;98.70;;;;;;2622558;46;20942;31
2022/02/18 11:46:01;;;;;;;8.27;1.85;;;13.20;98.80;;;;;;2619928;46;20122;31
2022/02/18 11:48:43;;;;;;;6.97;1.63;;;13.10;98.10;;;;;;2603889;54;20046;31
2022/02/18 11:51:23;;;;;;;6.85;1.45;;;13.10;99.10;;;;;;2603704;54;20137;31
2022/02/18 11:53:59;;;;;;;5.97;1.63;;;13.10;98.10;;;;;;2603676;54;20036;31
2022/02/18 11:56:53;;;;;;;4.53;1.30;;;13.10;98.10;;;;;;2603799;54;20917;31
2022/02/18 11:59:57;;;;;;;5.45;1.15;;;13.10;97.90;;;;;;2603805;54;20038;31
2022/02/18 12:02:39;;;;;;;7.57;1.80;;;13.00;97.60;;;;;;2622539;46;20026;31
2022/02/18 12:05:20;;;;;;;7.85;1.90;;;12.80;97.50;;;;;;2621819;46;20874;31
2022/02/18 12:07:57;;;;;;;6.07;1.55;;;12.70;97.90;;;;;;2621998;46;20116;31
2022/02/18 12:10:33;;;;;;;7.13;1.87;;;12.70;97.50;;;;;;2603560;54;20026;31
2022/02/18 12:13:12;;;;;;;7.25;2.08;;;12.70;97.90;;;;;;2702170;39;20462;31
2022/02/18 12:15:46;;;;;;;7.07;1.70;;;12.60;97.50;;;;;;2603765;54;20023;31
2022/02/18 12:18:27;;;;;;;12.20;2.58;;;12.60;98.30;;;;;;2702121;39;20469;31
2022/02/18 12:21:09;;;;;;;7.15;1.90;;;12.50;98.50;;;;;;2603692;54;20030;31
2022/02/18 12:23:43;;;;;;;6.03;1.60;;;12.50;98.10;;;;;;2603475;54;20049;31
2022/02/18 12:26:27;;;;;;;7.80;1.80;;;12.40;97.60;;;;;;2603701;54;20875;31
2022/02/18 12:29:35;;;;;;;5.53;1.45;;;12.40;97.30;;;;;;2603617;54;20972;31
2022/02/18 12:32:16;;;;;;;7.15;1.60;;;12.20;97.80;;;;;;2603591;54;20034;31
2022/02/18 12:35:01;;;;;;;8.43;2.47;;;12.10;97.30;;;;;;2603780;54;20143;31
2022/02/18 12:37:36;;;;;;;7.00;2.42;;;12.00;98.00;;;;;;2603698;54;20880;31
2022/02/18 12:40:16;;;;;;;7.30;2.22;;;12.00;98.00;;;;;;2603567;54;20027;31
2022/02/18 12:42:59;;;;;;;5.05;1.65;;;12.00;97.90;;;;;;2603725;54;20876;31
2022/02/18 12:45:44;;;;;;;6.05;2.15;;;12.00;98.50;;;;;;2603542;54;20080;31
2022/02/18 12:48:31;;;;;;;5.70;1.75;;;11.90;98.50;;;;;;2702318;39;21228;31
2022/02/18 12:51:11;;;;;;;6.97;1.92;;;11.90;98.40;;;;;;2621963;46;20061;31
2022/02/18 12:53:46;;;;;;;7.95;2.00;;;11.80;98.80;;;;;;2702072;39;20636;31
2022/02/18 12:56:22;;;;;;;6.25;2.13;;;11.80;99.00;;;;;;2603606;54;20070;31
2022/02/18 12:58:58;;;;;;;7.63;1.83;;;11.80;99.40;;;;;;2603351;54;20570;31
2022/02/18 13:01:33;;;;;;;5.50;1.85;;;11.80;99.90;;;;;;2602645;54;20101;31
2022/02/18 13:04:32;;;;;;;10.50;2.15;;;11.80;99.90;;;;;;2603598;54;20045;31
2022/02/18 13:07:06;;;;;;;9.82;1.92;;;11.80;99.60;;;;;;2603615;54;20052;31
2022/02/18 13:09:41;;;;;;;9.70;1.83;;;11.60;99.40;;;;;;2603379;54;20578;31
2022/02/18 13:12:21;;;;;;;6.40;1.75;;;11.50;99.70;;;;;;2603406;54;20910;31
2022/02/18 13:15:06;;;;;;;4.90;1.50;;;11.50;99.90;;;;;;2603560;54;20038;31
2022/02/18 13:17:40;;;;;;;8.48;1.83;;;11.50;99.90;;;;;;2603333;54;20892;31
2022/02/18 13:20:17;;;;;;;11.50;2.28;;;11.40;99.90;;;;;;2622373;46;20881;31
2022/02/18 13:22:52;;;;;;;7.15;2.13;;;11.30;99.90;;;;;;2603528;54;20030;31
2022/02/18 13:25:27;;;;;;;4.38;1.52;;;11.20;99.90;;;;;;2621991;46;20940;31
2022/02/18 13:28:03;;;;;;;8.75;1.50;;;11.10;99.90;;;;;;2621819;46;20042;31
2022/02/18 13:30:39;;;;;;;9.00;1.85;;;10.90;99.90;;;;;;2603561;54;20880;31
2022/02/18 13:33:14;;;;;;;6.33;1.90;;;10.90;99.90;;;;;;2701934;39;21037;31
2022/02/18 13:35:54;;;;;;;7.80;2.20;;;10.80;99.90;;;;;;2603363;54;20023;31
2022/02/18 13:38:32;;;;;;;9.02;1.90;;;10.80;99.90;;;;;;2603237;54;20060;31
2022/02/18 13:41:09;;;;;;;8.00;1.60;;;10.70;99.90;;;;;;2720591;39;21134;31
2022/02/18 13:43:43;;;;;;;5.78;1.90;;;10.60;99.90;;;;;;2603249;54;20779;31
2022/02/18 13:46:27;;;;;;;6.60;2.00;;;10.50;99.90;;;;;;2603345;54;20033;31
2022/02/18 13:49:02;;;;;;;5.10;2.08;;;10.40;99.90;;;;;;2603306;54;20715;31
2022/02/18 13:51:42;;;;;;;4.35;1.65;;;10.30;99.90;;;;;;2603512;54;20054;31
2022/02/18 13:54:16;;;;;;;7.25;1.90;;;10.20;99.90;;;;;;2603297;54;20013;31
2022/02/18 13:56:51;;;;;;;9.50;2.03;;;10.10;99.90;;;;;;2603298;54;20034;31
2022/02/18 13:59:28;;;;;;;7.38;2.28;;;10.10;99.90;;;;;;2621685;46;20123;31
2022/02/18 14:02:05;;;;;;;8.05;2.40;;;10.00;99.90;;;;;;2603375;54;20022;31